Time;durP1;ratioP1;P1;durP2;ratioP2;P2;SDS_P1;SDS_P2;PMS_P1;PMS_P2;Temp;Humidity;BMP_temperature;BMP_pressure;BME280_temperature;BME280_humidity;BME280_pressure;Samples;Min_cycle;Max_cycle;Signal;HPM_P1;HPM_P2
2021/05/22 00:01:18;;;;;;;4.55;1.48;;;;;;;14.07;50.10;99940.38;4988018;28;115167;-67
2021/05/22 00:03:45;;;;;;;6.45;1.60;;;;;;;14.05;50.00;99934.28;4982504;28;113806;-67
2021/05/22 00:06:12;;;;;;;5.15;1.60;;;;;;;14.06;49.85;99932.50;4989013;28;124047;-67
2021/05/22 00:08:39;;;;;;;6.22;1.75;;;;;;;14.05;49.88;99926.28;4987530;28;123964;-68
2021/05/22 00:11:07;;;;;;;5.25;1.60;;;;;;;14.05;49.61;99926.28;4990010;28;115570;-67
2021/05/22 00:13:34;;;;;;;4.90;1.25;;;;;;;14.06;49.68;99928.00;4988191;28;115348;-68
2021/05/22 00:16:01;;;;;;;5.43;1.40;;;;;;;14.08;49.41;99915.44;4980679;28;123874;-67
2021/05/22 00:18:28;;;;;;;6.03;1.77;;;;;;;14.11;49.35;99914.34;4987785;28;124691;-67
2021/05/22 00:20:57;;;;;;;6.03;1.40;;;;;;;14.12;49.38;99922.22;4989095;28;114632;-68
2021/05/22 00:23:24;;;;;;;5.97;1.55;;;;;;;14.11;49.28;99915.22;4992890;28;114721;-67
2021/05/22 00:25:51;;;;;;;8.73;1.75;;;;;;;14.10;49.08;99902.84;4990165;28;124339;-68
2021/05/22 00:28:19;;;;;;;4.88;1.50;;;;;;;14.11;49.07;99904.56;4990455;28;124608;-67
2021/05/22 00:30:48;;;;;;;6.30;1.27;;;;;;;14.11;49.03;99903.69;4987184;28;114587;-67
2021/05/22 00:33:15;;;;;;;5.38;1.23;;;;;;;14.11;49.06;99899.22;4979216;28;114690;-67
2021/05/22 00:35:43;;;;;;;8.15;1.38;;;;;;;14.12;49.06;99897.41;4984190;28;126738;-66
2021/05/22 00:38:11;;;;;;;6.05;1.50;;;;;;;14.11;49.20;99898.38;4987061;28;123885;-67
2021/05/22 00:40:38;;;;;;;7.65;1.58;;;;;;;14.10;48.94;99889.53;4999262;28;113333;-68
2021/05/22 00:43:05;;;;;;;4.65;1.30;;;;;;;14.11;48.80;99888.59;4985910;28;114039;-67
2021/05/22 00:45:33;;;;;;;7.13;1.20;;;;;;;14.11;48.65;99877.94;4983651;28;123620;-66
2021/05/22 00:48:02;;;;;;;4.60;1.25;;;;;;;14.11;48.59;99883.25;4989953;28;124816;-66
2021/05/22 00:50:36;;;;;;;7.65;1.42;;;;;;;14.10;48.69;99881.53;4989748;28;114975;-66
2021/05/22 00:53:05;;;;;;;6.25;1.48;;;;;;;14.10;48.61;99870.06;4988343;28;114945;-67
2021/05/22 00:55:34;;;;;;;4.82;1.52;;;;;;;14.09;48.53;99885.19;4990230;28;124699;-67
2021/05/22 00:58:02;;;;;;;9.20;1.60;;;;;;;14.10;48.52;99870.06;4989423;28;124030;-67
2021/05/22 01:00:40;;;;;;;7.70;1.17;;;;;;;14.10;48.64;99865.56;4990145;28;115067;-67
2021/05/22 01:03:09;;;;;;;6.35;1.60;;;;;;;14.11;48.52;99869.94;4994408;28;115265;-66
2021/05/22 01:05:42;;;;;;;7.90;1.67;;;;;;;14.11;48.60;99866.41;4991751;28;123944;-67
2021/05/22 01:08:15;;;;;;;10.02;1.80;;;;;;;14.10;48.60;99870.91;4988846;28;124257;-68
2021/05/22 01:10:45;;;;;;;6.57;1.50;;;;;;;14.10;48.46;99873.56;4992448;28;114521;-67
2021/05/22 01:13:13;;;;;;;8.68;1.52;;;;;;;14.09;48.45;99869.22;4984257;28;114627;-68
2021/05/22 01:15:43;;;;;;;8.23;1.55;;;;;;;14.09;48.54;99869.22;4993555;28;124238;-66
2021/05/22 01:18:11;;;;;;;5.55;1.50;;;;;;;14.10;48.58;99865.56;4993039;28;124002;-67
2021/05/22 01:20:42;;;;;;;4.93;1.30;;;;;;;14.10;48.67;99860.25;4990746;28;114177;-69
2021/05/22 01:23:21;;;;;;;7.40;1.50;;;;;;;14.12;48.71;99858.31;4989030;28;112875;-67
2021/05/22 01:25:50;;;;;;;5.75;1.70;;;;;;;14.15;48.62;99858.09;4988349;28;123958;-67
2021/05/22 01:28:18;;;;;;;6.65;1.45;;;;;;;14.16;48.76;99859.78;4989712;28;123779;-67
2021/05/22 01:30:48;;;;;;;4.63;1.30;;;;;;;14.17;48.90;99864.16;4992724;28;114213;-67
2021/05/22 01:33:17;;;;;;;4.78;1.48;;;;;;;14.19;48.70;99870.19;4992098;28;114221;-67
2021/05/22 01:35:45;;;;;;;5.57;1.33;;;;;;;14.21;48.64;99862.94;4990275;28;124176;-67
2021/05/22 01:38:12;;;;;;;4.97;1.50;;;;;;;14.21;48.72;99862.94;4992280;28;124417;-66
2021/05/22 01:40:40;;;;;;;7.55;1.52;;;;;;;14.20;48.72;99855.94;4980432;28;113548;-67
2021/05/22 01:43:08;;;;;;;6.97;1.40;;;;;;;14.20;48.76;99861.25;4990602;28;114752;-67
2021/05/22 01:45:41;;;;;;;4.93;1.35;;;;;;;14.18;48.87;99857.88;4997855;28;122884;-66
2021/05/22 01:48:11;;;;;;;5.43;1.33;;;;;;;14.18;49.05;99860.53;4987987;28;124029;-66
2021/05/22 01:50:48;;;;;;;4.32;1.30;;;;;;;14.18;48.78;99852.53;4994167;28;114354;-68
2021/05/22 01:53:17;;;;;;;4.68;1.20;;;;;;;14.19;48.82;99848.91;4992384;28;115491;-67
2021/05/22 01:55:47;;;;;;;4.13;1.00;;;;;;;14.18;48.92;99857.88;5001997;28;122951;-67
2021/05/22 01:58:14;;;;;;;4.90;1.10;;;;;;;14.16;48.91;99849.13;4989808;28;124487;-67
2021/05/22 02:00:44;;;;;;;5.55;1.13;;;;;;;14.14;49.13;99829.75;4993713;28;114252;-67
2021/05/22 02:03:32;;;;;;;4.10;1.20;;;;;;;14.12;48.99;99845.00;4990154;28;114416;-67
2021/05/22 02:06:03;;;;;;;5.15;1.00;;;;;;;14.12;49.24;99852.97;4983548;28;123625;-67
2021/05/22 02:08:33;;;;;;;3.88;0.90;;;;;;;14.13;48.95;99849.38;4989663;28;124652;-67
2021/05/22 02:11:01;;;;;;;4.35;1.20;;;;;;;14.14;49.16;99845.72;4990942;28;113245;-68
2021/05/22 02:13:28;;;;;;;3.25;1.00;;;;;;;14.16;49.24;99843.78;5005924;28;115213;-67
2021/05/22 02:16:01;;;;;;;2.95;1.23;;;;;;;14.14;49.18;99840.41;4989031;28;124167;-67
2021/05/22 02:18:33;;;;;;;4.20;1.10;;;;;;;14.15;49.14;99847.44;4991807;28;123951;-67
2021/05/22 02:21:02;;;;;;;4.15;1.20;;;;;;;14.16;49.26;99838.47;4994482;28;114344;-67
2021/05/22 02:23:34;;;;;;;5.63;1.20;;;;;;;14.16;49.39;99833.13;4990826;28;114184;-68
2021/05/22 02:26:01;;;;;;;5.63;1.30;;;;;;;14.17;49.21;99832.19;4990588;28;124473;-67
2021/05/22 02:28:32;;;;;;;5.43;1.33;;;;;;;14.19;49.42;99838.25;4993777;28;124553;-68
2021/05/22 02:31:01;;;;;;;7.47;1.25;;;;;;;14.19;49.02;99838.25;4989476;28;114211;-67
2021/05/22 02:33:30;;;;;;;3.72;1.05;;;;;;;14.20;49.42;99839.97;4987774;28;113980;-67
2021/05/22 02:35:58;;;;;;;5.03;1.27;;;;;;;14.23;49.46;99832.69;4989394;28;123887;-67
2021/05/22 02:38:30;;;;;;;3.90;1.25;;;;;;;14.24;49.41;99829.06;4986177;28;123908;-67
2021/05/22 02:41:02;;;;;;;7.05;1.50;;;;;;;14.25;49.56;99828.09;4990781;28;115537;-67
2021/05/22 02:43:30;;;;;;;4.00;1.30;;;;;;;14.27;49.61;99828.81;4990004;28;114745;-66
2021/05/22 02:45:58;;;;;;;5.78;1.10;;;;;;;14.28;49.55;99819.84;4990122;28;124720;-68
2021/05/22 02:48:27;;;;;;;3.65;1.00;;;;;;;14.29;49.68;99818.91;4987189;28;124177;-67
2021/05/22 02:50:59;;;;;;;7.55;1.45;;;;;;;14.30;49.46;99823.28;4990738;28;114782;-68
2021/05/22 02:53:28;;;;;;;4.18;1.15;;;;;;;14.31;49.39;99830.28;4989242;28;114494;-67
2021/05/22 02:55:55;;;;;;;4.82;1.42;;;;;;;14.31;49.53;99824.94;4988900;28;124823;-67
2021/05/22 02:58:24;;;;;;;4.95;1.50;;;;;;;14.32;49.50;99826.66;4991112;28;124025;-67
2021/05/22 03:00:52;;;;;;;8.45;1.40;;;;;;;14.32;49.64;99816.84;4984148;28;113351;-66
2021/05/22 03:03:19;;;;;;;5.35;1.55;;;;;;;14.35;49.47;99810.44;4990102;28;114065;-67
2021/05/22 03:05:46;;;;;;;4.68;1.30;;;;;;;14.35;49.65;99810.44;4985989;28;123994;-67
2021/05/22 03:08:13;;;;;;;5.55;1.35;;;;;;;14.34;49.50;99814.06;4990055;28;124153;-67
2021/05/22 03:10:41;;;;;;;4.97;1.38;;;;;;;14.35;49.79;99821.09;4994667;28;114590;-67
2021/05/22 03:13:08;;;;;;;5.10;1.20;;;;;;;14.36;49.64;99822.78;4991657;28;115332;-67
2021/05/22 03:15:35;;;;;;;3.60;1.30;;;;;;;14.35;49.70;99821.09;4991682;28;123546;-67
2021/05/22 03:18:03;;;;;;;3.55;1.30;;;;;;;14.36;49.70;99806.81;4990938;28;124171;-67
2021/05/22 03:20:30;;;;;;;5.63;1.40;;;;;;;14.37;49.61;99814.69;4989279;28;114210;-67
2021/05/22 03:22:57;;;;;;;3.53;1.30;;;;;;;14.39;49.74;99809.22;4987428;28;112836;-67
2021/05/22 03:25:24;;;;;;;5.30;1.20;;;;;;;14.39;49.67;99827.88;4988543;28;124059;-67
2021/05/22 03:27:51;;;;;;;4.70;1.20;;;;;;;14.39;49.68;99822.53;4983402;28;123124;-67
2021/05/22 03:30:19;;;;;;;3.90;1.40;;;;;;;14.39;49.75;99822.53;4989104;28;115188;-66
2021/05/22 03:32:46;;;;;;;6.22;1.10;;;;;;;14.39;49.94;99827.88;4986131;28;115015;-67
2021/05/22 03:35:13;;;;;;;5.32;1.20;;;;;;;14.39;49.85;99807.44;4989345;28;122906;-66
2021/05/22 03:37:40;;;;;;;4.32;1.00;;;;;;;14.40;49.89;99808.25;4988971;28;124632;-66
2021/05/22 03:40:08;;;;;;;5.25;1.45;;;;;;;14.38;49.90;99807.53;4986669;28;113131;-66
2021/05/22 03:42:35;;;;;;;6.38;1.20;;;;;;;14.38;50.00;99804.88;4992045;28;114236;-67
2021/05/22 03:45:04;;;;;;;6.65;1.33;;;;;;;14.39;50.10;99806.56;4990067;28;124062;-67
2021/05/22 03:47:31;;;;;;;3.88;1.40;;;;;;;14.39;50.22;99803.88;5000202;28;124169;-67
2021/05/22 03:49:58;;;;;;;4.90;1.25;;;;;;;14.39;50.37;99803.88;4990673;28;114704;-67
2021/05/22 03:52:26;;;;;;;6.00;1.10;;;;;;;14.39;50.26;99806.56;4976638;28;113365;-67
2021/05/22 03:54:53;;;;;;;5.57;1.38;;;;;;;14.37;50.48;99803.16;4986897;28;124068;-66
2021/05/22 03:57:20;;;;;;;4.38;1.27;;;;;;;14.36;50.47;99812.13;4988740;28;124126;-66
2021/05/22 03:59:48;;;;;;;6.10;1.30;;;;;;;14.32;50.64;99811.53;4988097;28;114517;-66
2021/05/22 04:02:15;;;;;;;6.60;1.38;;;;;;;14.31;50.65;99814.28;4989040;28;114253;-67
2021/05/22 04:04:42;;;;;;;8.40;1.40;;;;;;;14.29;50.71;99800.25;4993231;28;124818;-67
2021/05/22 04:07:09;;;;;;;6.32;1.52;;;;;;;14.30;50.88;99812.63;4990263;28;124104;-67
2021/05/22 04:09:36;;;;;;;7.05;1.33;;;;;;;14.29;50.92;99806.41;4996606;28;114179;-67
2021/05/22 04:12:03;;;;;;;4.35;1.30;;;;;;;14.28;50.90;99809.19;4989895;28;114078;-67
2021/05/22 04:14:30;;;;;;;5.82;1.90;;;;;;;14.29;50.99;99811.75;4987834;28;124631;-67
2021/05/22 04:16:58;;;;;;;7.85;1.60;;;;;;;14.30;50.99;99801.97;4976939;28;122812;-66
2021/05/22 04:19:25;;;;;;;6.72;1.30;;;;;;;14.30;51.15;99801.97;4987855;28;115047;-66
2021/05/22 04:21:52;;;;;;;6.30;1.50;;;;;;;14.29;51.13;99803.75;4996669;28;114783;-67
2021/05/22 04:24:19;;;;;;;5.20;1.40;;;;;;;14.31;51.19;99793.00;4987994;28;124028;-66
2021/05/22 04:26:46;;;;;;;6.53;1.52;;;;;;;14.32;51.05;99800.03;4989086;28;125754;-66
2021/05/22 04:29:13;;;;;;;8.23;1.60;;;;;;;14.32;51.21;99800.03;4988116;28;114676;-67
2021/05/22 04:31:40;;;;;;;8.15;1.58;;;;;;;14.36;51.13;99801.47;4988301;28;114839;-67
2021/05/22 04:34:09;;;;;;;5.60;1.58;;;;;;;14.39;51.24;99795.91;4986142;28;124452;-67
2021/05/22 04:36:37;;;;;;;7.22;1.70;;;;;;;14.41;51.16;99804.66;4992917;28;124429;-66
2021/05/22 04:39:05;;;;;;;8.60;1.75;;;;;;;14.43;51.09;99799.16;4990867;28;114307;-66
2021/05/22 04:41:33;;;;;;;7.72;1.67;;;;;;;14.45;51.14;99790.13;4993427;28;114149;-66
2021/05/22 04:44:00;;;;;;;9.65;1.60;;;;;;;14.47;51.09;99792.66;4992788;28;123965;-66
2021/05/22 04:46:27;;;;;;;4.80;1.60;;;;;;;14.48;51.05;99799.66;4993904;28;125414;-66
2021/05/22 04:48:55;;;;;;;5.70;1.65;;;;;;;14.50;51.20;99795.06;4999377;28;113761;-68
2021/05/22 04:51:26;;;;;;;9.48;1.80;;;;;;;14.50;51.09;99793.25;4991990;28;114437;-66
2021/05/22 04:54:05;;;;;;;7.10;1.60;;;;;;;14.51;50.99;99789.63;4979544;28;123904;-67
2021/05/22 04:56:33;;;;;;;5.68;1.38;;;;;;;14.53;51.01;99797.50;4991289;28;124670;-67
2021/05/22 04:59:01;;;;;;;5.47;1.77;;;;;;;14.53;51.15;99803.66;4991020;28;114328;-66
2021/05/22 05:01:28;;;;;;;7.68;1.63;;;;;;;14.54;51.26;99805.38;4991896;28;113804;-67
2021/05/22 05:03:56;;;;;;;6.10;1.42;;;;;;;14.54;51.27;99805.38;4991119;28;124091;-67
2021/05/22 05:06:23;;;;;;;10.43;1.70;;;;;;;14.54;51.33;99805.38;4991898;28;123728;-67
2021/05/22 05:08:50;;;;;;;6.00;1.70;;;;;;;14.55;51.45;99801.72;4991849;28;115573;-68
2021/05/22 05:11:17;;;;;;;6.88;1.58;;;;;;;14.56;51.39;99807.91;4993332;28;115545;-67
2021/05/22 05:13:44;;;;;;;5.90;1.90;;;;;;;14.57;51.44;99815.81;4993452;28;124342;-67
2021/05/22 05:16:13;;;;;;;5.57;1.63;;;;;;;14.57;51.58;99818.47;4991497;28;123701;-67
2021/05/22 05:18:41;;;;;;;8.25;1.83;;;;;;;14.57;51.59;99818.47;4989873;28;114362;-69
2021/05/22 05:21:09;;;;;;;6.60;1.77;;;;;;;14.59;51.46;99819.19;4988693;28;113899;-67
2021/05/22 05:23:37;;;;;;;12.98;2.00;;;;;;;14.57;51.68;99815.81;4990968;28;123955;-68
2021/05/22 05:26:04;;;;;;;7.60;1.70;;;;;;;14.57;51.74;99821.13;4990255;28;124577;-66
2021/05/22 05:28:32;;;;;;;11.98;1.90;;;;;;;14.55;51.91;99817.72;4992774;28;115026;-66
2021/05/22 05:31:00;;;;;;;6.00;1.70;;;;;;;14.54;52.04;99826.69;4990987;28;114103;-67
2021/05/22 05:33:27;;;;;;;8.52;2.35;;;;;;;14.53;52.19;99830.31;4990215;28;126373;-66
2021/05/22 05:35:55;;;;;;;10.65;2.17;;;;;;;14.54;52.30;99832.03;4991587;28;124532;-66
2021/05/22 05:38:22;;;;;;;7.30;1.77;;;;;;;14.51;52.32;99832.25;4980240;28;113289;-67
2021/05/22 05:40:49;;;;;;;9.07;1.90;;;;;;;14.51;52.61;99826.09;4999350;28;113674;-65
2021/05/22 05:43:17;;;;;;;8.95;1.70;;;;;;;14.48;52.77;99837.81;4991078;28;124336;-67
2021/05/22 05:45:44;;;;;;;6.80;1.90;;;;;;;14.47;52.89;99838.78;5018617;22;123019;-67
2021/05/22 05:48:11;;;;;;;7.25;2.08;;;;;;;14.45;52.96;99843.41;4988633;28;114269;-68
2021/05/22 05:50:38;;;;;;;10.93;2.13;;;;;;;14.44;53.05;99836.34;4973337;28;113196;-67
2021/05/22 05:53:06;;;;;;;8.05;1.98;;;;;;;14.41;53.06;99849.94;4990767;28;124733;-67
2021/05/22 05:55:33;;;;;;;6.68;2.05;;;;;;;14.39;53.33;99846.50;4990391;28;123187;-68
2021/05/22 05:58:00;;;;;;;9.60;1.85;;;;;;;14.37;53.52;99841.31;4973224;28;114892;-67
2021/05/22 06:00:28;;;;;;;9.45;2.10;;;;;;;14.36;53.52;99850.28;4988456;28;115038;-67
2021/05/22 06:02:55;;;;;;;6.40;2.08;;;;;;;14.35;53.47;99853.91;4988879;28;124157;-67
2021/05/22 06:05:22;;;;;;;8.95;2.00;;;;;;;14.35;53.53;99850.38;4989709;28;123813;-67
2021/05/22 06:07:50;;;;;;;8.68;2.50;;;;;;;14.36;53.70;99854.75;4986988;28;114508;-67
2021/05/22 06:10:18;;;;;;;7.53;2.05;;;;;;;14.38;53.78;99847.50;4990222;28;113652;-67
2021/05/22 06:12:46;;;;;;;6.38;2.10;;;;;;;14.41;53.75;99847.28;4991212;28;124330;-68
2021/05/22 06:17:44;;;;;;;9.13;2.25;;;;;;;14.43;53.45;99849.78;4991923;28;114737;-67
2021/05/22 06:20:12;;;;;;;7.72;1.90;;;;;;;14.43;53.55;99856.00;4990838;28;114317;-68
2021/05/22 06:22:40;;;;;;;7.38;2.35;;;;;;;14.45;53.63;99856.72;4989963;28;124135;-68
2021/05/22 06:25:09;;;;;;;5.82;1.55;;;;;;;14.47;53.67;99852.13;4991258;28;126100;-67
2021/05/22 06:27:36;;;;;;;7.70;2.05;;;;;;;14.49;53.49;99860.00;4987976;28;114342;-68
2021/05/22 06:30:05;;;;;;;8.13;2.30;;;;;;;14.51;53.60;99858.91;4971486;28;113551;-68
2021/05/22 06:32:34;;;;;;;5.72;1.83;;;;;;;14.52;53.42;99855.28;4991971;28;124616;-67
2021/05/22 06:35:02;;;;;;;8.43;2.20;;;;;;;14.53;53.52;99867.63;4989033;28;122831;-68
2021/05/22 06:37:29;;;;;;;7.60;1.70;;;;;;;14.54;53.61;99858.66;4989278;28;114644;-67
2021/05/22 06:39:56;;;;;;;7.18;1.88;;;;;;;14.56;53.60;99856.72;4990196;28;113190;-68
2021/05/22 06:42:25;;;;;;;7.03;1.88;;;;;;;14.57;53.54;99868.25;4990190;28;124702;-67
2021/05/22 06:44:58;;;;;;;8.68;1.90;;;;;;;14.57;53.58;99871.78;4988163;28;122963;-67
2021/05/22 06:47:25;;;;;;;7.30;2.10;;;;;;;14.56;53.66;99872.72;4989899;28;115272;-67
2021/05/22 06:49:52;;;;;;;8.35;2.03;;;;;;;14.57;53.65;99870.94;4990004;28;114713;-67
2021/05/22 06:52:20;;;;;;;7.88;1.85;;;;;;;14.58;53.94;99870.81;4990152;28;123939;-68
2021/05/22 06:54:47;;;;;;;6.47;2.20;;;;;;;14.64;53.88;99873.97;4989665;28;123666;-67
2021/05/22 06:57:14;;;;;;;6.07;2.00;;;;;;;14.66;53.85;99872.03;4989956;28;114465;-68
2021/05/22 06:59:41;;;;;;;7.57;1.80;;;;;;;14.64;53.84;99874.81;4988905;28;113030;-67
2021/05/22 07:02:08;;;;;;;7.38;1.80;;;;;;;14.64;53.81;99879.31;4975971;28;123012;-68
2021/05/22 07:04:35;;;;;;;9.07;2.08;;;;;;;14.63;53.97;99889.09;4988934;28;122623;-68
2021/05/22 07:07:02;;;;;;;5.32;2.10;;;;;;;14.64;54.09;99879.31;4993986;28;114407;-68
2021/05/22 07:09:29;;;;;;;8.15;1.90;;;;;;;14.66;54.06;99882.72;4988763;28;114131;-69
2021/05/22 07:11:56;;;;;;;7.38;1.67;;;;;;;14.65;54.02;99875.66;4989553;28;123925;-68
2021/05/22 07:14:23;;;;;;;7.60;1.70;;;;;;;14.64;54.17;99885.47;4997202;28;123351;-68
2021/05/22 07:16:57;;;;;;;9.38;2.10;;;;;;;14.64;54.13;99900.63;4984624;28;113987;-68
2021/05/22 07:19:26;;;;;;;5.07;1.67;;;;;;;14.64;54.25;99900.63;4988102;28;113542;-67
2021/05/22 07:21:55;;;;;;;8.23;2.22;;;;;;;14.64;54.41;99900.63;4986851;28;124488;-66
2021/05/22 07:24:22;;;;;;;7.78;2.00;;;;;;;14.63;54.25;99898.91;4988792;28;124151;-67
2021/05/22 07:26:51;;;;;;;8.50;1.98;;;;;;;14.62;54.50;99910.53;4982810;28;112905;-67
2021/05/22 07:29:18;;;;;;;6.03;1.83;;;;;;;14.62;54.57;99905.19;4986843;28;113428;-68
2021/05/22 07:31:45;;;;;;;11.07;1.95;;;;;;;14.59;54.90;99909.81;4987660;28;124074;-67
2021/05/22 07:34:12;;;;;;;6.03;2.00;;;;;;;14.59;54.94;99917.81;4988225;28;124650;-68
2021/05/22 07:36:40;;;;;;;8.30;1.90;;;;;;;14.60;55.07;99927.50;4987601;28;115002;-68
2021/05/22 07:39:11;;;;;;;7.78;1.80;;;;;;;14.62;55.36;99924.72;4986461;28;113627;-67
2021/05/22 07:41:44;;;;;;;6.63;1.90;;;;;;;14.64;55.35;99932.63;4986850;28;123116;-69
2021/05/22 07:44:12;;;;;;;6.22;1.92;;;;;;;14.64;55.29;99932.63;5000375;28;124249;-68
2021/05/22 07:46:40;;;;;;;8.95;2.25;;;;;;;14.63;55.45;99933.56;4988211;28;114053;-67
2021/05/22 07:49:07;;;;;;;6.68;1.90;;;;;;;14.63;55.53;99936.22;4987985;28;114581;-68
2021/05/22 07:51:34;;;;;;;5.95;1.75;;;;;;;14.62;55.63;99926.53;4986487;28;124104;-68
2021/05/22 07:54:01;;;;;;;7.43;2.00;;;;;;;14.60;55.84;99945.31;4988621;28;123884;-68
2021/05/22 07:56:28;;;;;;;6.82;2.03;;;;;;;14.60;55.99;99943.50;4988161;28;114198;-68
2021/05/22 07:58:56;;;;;;;7.15;2.20;;;;;;;14.58;56.05;99944.59;4986127;28;113754;-67
2021/05/22 08:01:23;;;;;;;7.07;2.55;;;;;;;14.57;56.33;99954.38;4985487;28;123108;-67
2021/05/22 08:03:50;;;;;;;6.47;2.00;;;;;;;14.58;56.47;99956.09;4987055;28;124598;-68
2021/05/22 08:06:17;;;;;;;5.82;1.95;;;;;;;14.58;56.62;99948.09;4988466;28;114588;-67
2021/05/22 08:08:44;;;;;;;5.93;2.20;;;;;;;14.58;56.70;99950.75;4988659;28;114281;-68
2021/05/22 08:11:12;;;;;;;5.55;1.90;;;;;;;14.60;56.90;99954.16;4990486;28;124620;-68
2021/05/22 08:13:40;;;;;;;6.50;2.28;;;;;;;14.63;57.12;99944.22;4990943;28;123729;-68
2021/05/22 08:16:07;;;;;;;6.75;2.20;;;;;;;14.66;57.31;99946.66;4992256;28;114792;-68
2021/05/22 08:18:36;;;;;;;5.68;2.10;;;;;;;14.69;57.32;99951.75;4991877;28;113768;-67
2021/05/22 08:21:03;;;;;;;6.55;2.10;;;;;;;14.72;57.36;99951.53;4992492;28;124021;-68
2021/05/22 08:23:31;;;;;;;7.53;3.08;;;;;;;14.75;57.60;99959.28;4992210;28;122894;-66
2021/05/22 08:25:58;;;;;;;6.53;2.47;;;;;;;14.77;57.57;99954.69;4986698;28;114665;-67
2021/05/22 08:28:45;;;;;;;6.03;2.28;;;;;;;14.79;57.54;99958.09;4977412;28;115600;-68
2021/05/22 08:31:12;;;;;;;5.20;2.00;;;;;;;14.81;57.52;99955.31;4989815;28;123823;-68
2021/05/22 08:33:39;;;;;;;4.80;2.15;;;;;;;14.79;57.49;99958.09;4991671;28;123953;-67
2021/05/22 08:36:07;;;;;;;6.90;2.00;;;;;;;14.79;57.45;99972.25;4989793;28;113640;-68
2021/05/22 08:38:35;;;;;;;8.23;1.77;;;;;;;14.78;57.57;99975.03;4991161;28;114283;-67
2021/05/22 08:41:03;;;;;;;5.65;1.90;;;;;;;14.76;57.40;99974.31;4992765;28;123817;-68
2021/05/22 08:43:31;;;;;;;7.50;1.90;;;;;;;14.73;57.50;99978.06;4991071;28;124574;-67
2021/05/22 08:45:59;;;;;;;6.07;1.80;;;;;;;14.71;57.57;99969.34;4991269;28;114298;-67
2021/05/22 08:48:26;;;;;;;5.10;2.00;;;;;;;14.72;57.77;99975.50;4990719;28;113724;-68
2021/05/22 08:50:53;;;;;;;6.40;2.28;;;;;;;14.70;57.86;99974.78;4989637;28;123699;-67
2021/05/22 08:53:22;;;;;;;6.72;2.13;;;;;;;14.72;57.98;99972.84;4992944;28;124088;-68
2021/05/22 08:55:49;;;;;;;5.72;2.30;;;;;;;14.73;58.00;99983.41;4984661;28;114562;-67
2021/05/22 08:58:16;;;;;;;5.93;3.10;;;;;;;14.74;58.14;99976.25;4981536;28;112723;-67
2021/05/22 09:00:43;;;;;;;7.20;2.70;;;;;;;14.76;58.13;99984.97;4989688;28;126812;-67
2021/05/22 09:03:11;;;;;;;8.18;2.90;;;;;;;14.77;58.29;99986.69;4991314;28;123897;-67
2021/05/22 09:05:41;;;;;;;5.15;2.38;;;;;;;14.78;58.14;99993.69;4990940;28;113246;-68
2021/05/22 09:08:12;;;;;;;5.65;2.10;;;;;;;14.79;58.36;99990.06;4992678;28;115962;-68
2021/05/22 09:10:41;;;;;;;10.50;2.33;;;;;;;14.82;58.34;99992.47;4992678;28;123870;-67
2021/05/22 09:13:11;;;;;;;5.47;2.28;;;;;;;14.85;58.12;99989.59;4982587;28;124684;-67
2021/05/22 09:15:43;;;;;;;4.88;1.92;;;;;;;14.88;58.10;99989.38;4991621;28;115135;-68
2021/05/22 09:18:14;;;;;;;6.88;2.35;;;;;;;14.91;58.04;99994.44;5005204;28;114147;-67
2021/05/22 09:21:03;;;;;;;5.05;2.10;;;;;;;14.91;58.10;99989.13;4988084;28;124464;-67
2021/05/22 09:23:36;;;;;;;5.93;2.30;;;;;;;14.94;58.21;99994.22;4989918;28;123608;-67
2021/05/22 09:26:14;;;;;;;4.40;1.85;;;;;;;14.94;58.23;99999.56;4989070;28;113126;-67
2021/05/22 09:28:49;;;;;;;6.07;1.98;;;;;;;14.94;58.07;99999.56;4987493;28;114256;-68
2021/05/22 09:31:21;;;;;;;7.10;1.97;;;;;;;14.94;58.02;100004.88;4987463;28;124442;-68
2021/05/22 09:33:49;;;;;;;7.93;1.75;;;;;;;14.94;58.09;100007.56;4988991;28;124581;-68
2021/05/22 09:36:16;;;;;;;4.95;2.10;;;;;;;14.96;58.27;100012.78;4990344;28;113291;-68
2021/05/22 09:38:55;;;;;;;5.82;2.00;;;;;;;14.97;58.01;100015.31;4973353;28;112802;-68
2021/05/22 09:41:33;;;;;;;4.82;1.95;;;;;;;14.97;58.00;100026.00;4989916;28;123945;-67
2021/05/22 09:44:07;;;;;;;5.22;1.90;;;;;;;14.96;58.09;100018.94;4986071;28;123385;-68
2021/05/22 09:46:36;;;;;;;4.40;1.73;;;;;;;14.97;57.94;100023.31;4987057;28;114644;-67
2021/05/22 09:49:05;;;;;;;4.47;1.80;;;;;;;14.98;58.01;100027.69;4990197;28;113886;-67
2021/05/22 09:51:32;;;;;;;5.53;1.67;;;;;;;15.01;57.95;100031.06;4988270;28;124160;-67
2021/05/22 09:53:59;;;;;;;6.57;2.00;;;;;;;15.03;57.77;100032.69;4989451;28;124234;-68
2021/05/22 09:56:27;;;;;;;4.10;1.88;;;;;;;15.05;58.02;100033.41;4972557;28;113800;-67
2021/05/22 09:58:56;;;;;;;4.72;2.00;;;;;;;15.08;58.14;100033.16;4992722;28;113667;-68
2021/05/22 10:01:29;;;;;;;6.07;2.00;;;;;;;15.12;58.14;100033.75;4991818;28;124427;-68
2021/05/22 10:04:17;;;;;;;3.42;1.55;;;;;;;15.14;58.10;100040.69;5006167;28;124643;-67
2021/05/22 10:06:44;;;;;;;5.50;1.88;;;;;;;15.18;58.08;100043.94;5005349;28;113835;-67
2021/05/22 10:09:17;;;;;;;2.88;1.50;;;;;;;15.20;58.17;100058.06;5009234;28;114425;-68
2021/05/22 10:12:00;;;;;;;5.38;1.90;;;;;;;15.22;58.01;100055.25;5002058;28;124516;-67
2021/05/22 10:14:33;;;;;;;3.28;1.63;;;;;;;15.26;58.21;100046.91;4999415;28;123742;-68
2021/05/22 10:17:02;;;;;;;2.80;1.58;;;;;;;15.34;58.26;100055.16;4990403;28;114368;-68
2021/05/22 10:19:31;;;;;;;6.35;2.10;;;;;;;15.39;58.25;100062.81;4989456;28;113874;-68
2021/05/22 10:22:00;;;;;;;4.32;1.65;;;;;;;15.45;57.91;100050.81;4990178;28;123938;-68
2021/05/22 10:24:28;;;;;;;5.72;1.85;;;;;;;15.51;58.12;100066.34;4990754;28;123986;-68
2021/05/22 10:26:56;;;;;;;4.65;1.60;;;;;;;15.56;57.95;100064.16;5001321;28;113768;-68
2021/05/22 10:29:25;;;;;;;3.63;1.58;;;;;;;15.58;57.81;100073.72;4989312;28;114441;-67
2021/05/22 10:31:53;;;;;;;4.13;1.80;;;;;;;15.60;57.77;100075.44;4988864;28;124329;-68
2021/05/22 10:34:28;;;;;;;5.10;1.70;;;;;;;15.59;57.92;100061.22;4987584;28;123661;-67
2021/05/22 10:36:58;;;;;;;3.72;1.67;;;;;;;15.56;57.47;100075.69;4988643;28;114029;-68
2021/05/22 10:39:31;;;;;;;5.38;2.00;;;;;;;15.55;57.96;100067.78;4989063;28;114035;-68
2021/05/22 10:42:03;;;;;;;4.30;1.60;;;;;;;15.56;57.86;100090.84;4987619;28;124601;-68
2021/05/22 10:44:33;;;;;;;3.42;1.70;;;;;;;15.54;57.96;100092.78;4989898;28;124356;-68
2021/05/22 10:47:06;;;;;;;4.35;2.00;;;;;;;15.53;58.12;100086.59;4990291;28;114315;-68
2021/05/22 10:49:51;;;;;;;4.28;1.80;;;;;;;15.52;57.93;100090.25;4988523;28;114503;-68
2021/05/22 10:52:20;;;;;;;;;;;;;;;15.51;57.60;100093.84;4979571;28;124737;-68
2021/05/22 10:54:58;;;;;;;4.80;2.00;;;;;;;15.52;57.63;100105.38;4990318;28;124132;-68
2021/05/22 10:57:26;;;;;;;4.68;1.80;;;;;;;15.52;57.67;100102.72;4970055;28;114747;-68
2021/05/22 11:00:19;;;;;;;3.83;2.20;;;;;;;15.50;57.66;100109.97;4990758;28;114951;-68
2021/05/22 11:02:51;;;;;;;4.55;1.80;;;;;;;15.52;57.95;100105.38;4987239;28;123683;-68
2021/05/22 11:05:27;;;;;;;6.07;2.70;;;;;;;15.52;57.99;100110.72;4989190;28;124794;-68
2021/05/22 11:08:06;;;;;;;4.80;2.22;;;;;;;15.51;58.01;100131.22;4985211;28;114951;-67
2021/05/22 11:10:58;;;;;;;4.93;2.17;;;;;;;15.50;57.93;100118.00;4987279;28;114151;-67
2021/05/22 11:13:25;;;;;;;4.78;2.25;;;;;;;15.49;57.83;100116.31;4986246;28;122998;-68
2021/05/22 11:15:57;;;;;;;3.97;2.05;;;;;;;15.48;58.09;100119.94;4988288;28;124789;-68
2021/05/22 11:18:27;;;;;;;3.30;2.00;;;;;;;15.49;58.11;100132.31;4981822;28;113952;-68
2021/05/22 11:21:20;;;;;;;4.03;2.70;;;;;;;15.47;58.13;100136.94;4983797;28;113835;-68
2021/05/22 11:23:57;;;;;;;4.75;2.58;;;;;;;15.44;58.28;100146.00;5000663;28;123470;-69
2021/05/22 11:26:58;;;;;;;8.27;2.67;;;;;;;15.42;58.52;100147.09;5002892;28;124219;-67
2021/05/22 11:29:54;;;;;;;4.60;2.35;;;;;;;15.44;58.74;100153.16;4955346;28;114513;-67
2021/05/22 11:32:44;;;;;;;3.85;2.55;;;;;;;15.47;58.75;100171.63;4987875;28;113916;-67
2021/05/22 11:35:26;;;;;;;4.47;2.95;;;;;;;15.49;58.85;100180.34;4987928;28;124263;-68
2021/05/22 11:37:54;;;;;;;6.35;2.70;;;;;;;15.52;59.10;100174.75;4988194;28;126797;-68